Time;durP1;ratioP1;P1;durP2;ratioP2;P2;SDS_P1;SDS_P2;PMS_P1;PMS_P2;Temp;Humidity;BMP_temperature;BMP_pressure;BME280_temperature;BME280_humidity;BME280_pressure;Samples;Min_cycle;Max_cycle;Signal;HPM_P1;HPM_P2
2022/03/26 00:01:08;;;;;;;24.33;16.83;;;;;;;7.77;69.96;100510.16;5112966;28;20248;-54
2022/03/26 00:03:37;;;;;;;23.80;15.53;;;;;;;7.76;69.19;100499.81;5113034;28;20199;-55
2022/03/26 00:06:06;;;;;;;29.57;16.13;;;;;;;7.84;68.54;100501.50;5113260;28;20202;-55
2022/03/26 00:08:33;;;;;;;24.37;14.90;;;;;;;7.87;67.29;100491.19;5112959;28;20206;-54
2022/03/26 00:11:00;;;;;;;25.10;14.13;;;;;;;7.81;67.12;100492.91;5112796;28;20202;-55
2022/03/26 00:13:27;;;;;;;27.43;14.23;;;;;;;7.78;67.07;100493.78;5112780;28;20609;-54
2022/03/26 00:15:54;;;;;;;23.10;14.63;;;;;;;7.78;66.74;100496.38;5112668;28;20234;-53
2022/03/26 00:18:21;;;;;;;25.37;14.23;;;;;;;7.77;66.70;100497.22;5112707;28;20194;-54
2022/03/26 00:20:49;;;;;;;22.77;14.97;;;;;;;7.79;67.02;100494.66;5112604;28;20214;-54
2022/03/26 00:23:17;;;;;;;28.80;15.83;;;;;;;7.72;67.42;100496.38;5112516;28;20194;-55
2022/03/26 00:25:44;;;;;;;26.73;15.10;;;;;;;7.64;68.56;100503.28;5112714;28;20191;-55
2022/03/26 00:28:11;;;;;;;27.93;15.90;;;;;;;7.54;68.79;100507.59;5112234;28;20293;-54
2022/03/26 00:30:38;;;;;;;33.23;15.47;;;;;;;7.48;70.09;100501.56;5112507;28;20190;-54
2022/03/26 00:33:05;;;;;;;25.03;16.13;;;;;;;7.37;70.44;100490.38;5112504;28;20202;-53
2022/03/26 00:35:32;;;;;;;23.90;15.50;;;;;;;7.37;70.84;100503.28;5112342;28;20197;-53
2022/03/26 00:38:00;;;;;;;25.53;15.53;;;;;;;7.37;70.34;100500.69;5112381;28;20271;-54
2022/03/26 00:40:27;;;;;;;33.67;15.87;;;;;;;7.34;70.74;100500.69;5112105;28;20225;-54
2022/03/26 00:42:54;;;;;;;22.73;15.93;;;;;;;7.36;70.38;100501.56;5112201;28;20199;-53
2022/03/26 00:45:21;;;;;;;25.53;15.57;;;;;;;7.28;70.48;100502.44;5111976;28;20197;-53
2022/03/26 00:47:48;;;;;;;24.67;15.03;;;;;;;7.09;71.38;100505.88;5112433;28;20632;-55
2022/03/26 00:50:15;;;;;;;29.07;15.90;;;;;;;6.95;72.02;100507.56;5112349;28;20226;-54
2022/03/26 00:52:42;;;;;;;33.00;17.67;;;;;;;6.78;73.45;100509.22;5112210;28;20793;-54
2022/03/26 00:55:11;;;;;;;34.23;17.13;;;;;;;6.84;73.66;100512.69;5111920;28;20285;-54
2022/03/26 00:57:38;;;;;;;25.77;15.20;;;;;;;6.70;74.29;100516.09;5111962;28;20195;-55
2022/03/26 01:00:08;;;;;;;23.27;15.53;;;;;;;6.65;75.59;100510.94;5111633;28;20305;-52
2022/03/26 01:02:35;;;;;;;28.17;16.17;;;;;;;6.69;75.50;100517.81;5112085;28;20746;-53
2022/03/26 01:05:02;;;;;;;24.73;15.27;;;;;;;6.72;75.95;100522.13;5111954;28;20226;-53
2022/03/26 01:07:29;;;;;;;23.80;16.50;;;;;;;6.73;76.56;100521.28;5111735;28;20213;-53
2022/03/26 01:09:56;;;;;;;22.23;15.67;;;;;;;6.73;76.76;100521.28;5111209;28;20222;-55
2022/03/26 01:12:26;;;;;;;24.23;16.10;;;;;;;6.65;77.68;100518.69;5111440;28;20194;-55
2022/03/26 01:14:53;;;;;;;24.50;16.83;;;;;;;6.60;78.12;100522.94;5111593;28;20278;-53
2022/03/26 01:17:21;;;;;;;26.23;16.47;;;;;;;6.60;78.53;100524.66;5111839;28;20191;-52
2022/03/26 01:19:48;;;;;;;23.23;15.97;;;;;;;6.59;78.69;100523.81;5111874;28;20349;-52
2022/03/26 01:22:15;;;;;;;23.80;15.57;;;;;;;6.68;78.76;100530.69;5111266;28;20191;-52
2022/03/26 01:24:42;;;;;;;26.40;16.27;;;;;;;6.61;78.23;100531.56;5111410;28;20224;-52
2022/03/26 01:27:09;;;;;;;31.00;17.33;;;;;;;6.45;79.09;100531.47;5111225;28;20194;-52
2022/03/26 01:29:38;;;;;;;27.30;18.20;;;;;;;6.35;79.77;100526.28;5111269;28;20197;-52
2022/03/26 01:32:07;;;;;;;31.30;17.53;;;;;;;6.37;79.98;100533.19;5111442;28;20194;-53
2022/03/26 01:34:35;;;;;;;24.47;18.30;;;;;;;6.36;79.77;100535.75;5111206;28;20207;-54
2022/03/26 01:37:02;;;;;;;31.97;18.77;;;;;;;6.21;80.89;100530.53;5111317;28;20575;-54
2022/03/26 01:39:30;;;;;;;33.50;19.43;;;;;;;6.08;82.72;100530.47;5110938;28;20187;-54
2022/03/26 01:42:02;;;;;;;34.57;21.00;;;;;;;5.94;83.80;100529.53;5111095;28;20232;-54
2022/03/26 01:44:29;;;;;;;31.83;20.27;;;;;;;6.01;83.88;100541.56;5111094;28;20194;-54
2022/03/26 01:46:59;;;;;;;33.23;20.53;;;;;;;5.90;85.51;100539.78;5111007;28;20213;-54
2022/03/26 01:49:27;;;;;;;38.00;20.73;;;;;;;5.87;85.47;100532.84;5110864;28;20289;-54
2022/03/26 01:51:54;;;;;;;29.00;19.73;;;;;;;6.03;84.76;100544.16;5111002;28;20204;-53
2022/03/26 01:54:21;;;;;;;34.13;20.47;;;;;;;6.17;83.80;100547.69;5110815;28;20666;-54
2022/03/26 01:56:49;;;;;;;30.53;19.77;;;;;;;6.21;83.21;100541.69;5110877;28;20293;-54
2022/03/26 01:59:16;;;;;;;33.77;20.43;;;;;;;6.25;83.05;100548.59;5110627;28;20190;-53
2022/03/26 02:01:43;;;;;;;34.87;20.43;;;;;;;6.26;82.81;100541.72;5110719;28;20634;-54
2022/03/26 02:04:12;;;;;;;32.80;19.70;;;;;;;6.22;82.98;100547.69;5110564;28;20594;-54
2022/03/26 02:06:40;;;;;;;30.83;19.60;;;;;;;6.13;83.23;100546.81;5110708;28;20625;-54
2022/03/26 02:09:09;;;;;;;31.47;19.10;;;;;;;6.14;83.36;100542.50;5110876;28;20749;-54
2022/03/26 02:11:38;;;;;;;34.13;19.07;;;;;;;6.06;84.36;100560.53;5110597;28;20196;-54
2022/03/26 02:14:08;;;;;;;44.77;19.90;;;;;;;6.02;84.11;100555.31;5110804;28;20670;-53
2022/03/26 02:16:36;;;;;;;44.53;20.17;;;;;;;6.03;84.08;100552.75;5110390;28;20237;-54
2022/03/26 02:19:03;;;;;;;35.10;21.03;;;;;;;6.06;84.35;100569.97;5110410;28;20205;-54
2022/03/26 02:21:34;;;;;;;34.87;20.27;;;;;;;5.96;85.04;100565.59;5109597;28;20778;-54
2022/03/26 02:24:02;;;;;;;32.40;19.80;;;;;;;5.94;85.16;100567.31;5110688;28;20230;-54
2022/03/26 02:26:29;;;;;;;33.43;20.37;;;;;;;5.97;85.30;100564.75;5110679;28;20525;-53
2022/03/26 02:28:58;;;;;;;31.83;19.83;;;;;;;5.95;85.10;100558.72;5110447;28;20194;-54
2022/03/26 02:31:27;;;;;;;36.60;20.50;;;;;;;5.86;86.29;100566.38;5110361;28;20191;-52
2022/03/26 02:33:54;;;;;;;36.33;21.37;;;;;;;5.86;86.94;100568.94;5110368;28;20199;-53
2022/03/26 02:36:21;;;;;;;32.27;20.33;;;;;;;5.81;87.79;100566.31;5110379;28;20197;-53
2022/03/26 02:38:49;;;;;;;37.43;20.90;;;;;;;5.71;88.37;100554.22;5110367;28;20202;-54
2022/03/26 02:41:16;;;;;;;40.63;22.47;;;;;;;5.73;88.83;100562.84;5110212;28;20313;-52
2022/03/26 02:43:43;;;;;;;37.63;20.63;;;;;;;5.74;89.08;100564.56;5110337;28;20692;-52
2022/03/26 02:46:10;;;;;;;31.53;21.17;;;;;;;5.76;88.67;100568.00;5109890;28;20244;-53
2022/03/26 02:48:39;;;;;;;34.87;20.97;;;;;;;5.81;88.51;100574.06;5110132;28;20197;-53
2022/03/26 02:51:07;;;;;;;34.47;20.67;;;;;;;5.75;88.66;100571.44;5110292;28;20191;-53
2022/03/26 02:53:34;;;;;;;36.27;20.57;;;;;;;5.79;88.50;100584.34;5110011;28;20206;-53
2022/03/26 02:56:02;;;;;;;39.43;20.93;;;;;;;5.70;89.01;100586.84;5110132;28;20226;-53
2022/03/26 02:58:29;;;;;;;36.17;20.53;;;;;;;5.71;88.68;100579.97;5110289;28;20294;-53
2022/03/26 03:00:57;;;;;;;37.10;21.13;;;;;;;5.71;88.57;100580.84;5110144;28;20225;-53
2022/03/26 03:03:24;;;;;;;35.23;21.57;;;;;;;5.72;88.19;100582.56;5110043;28;20201;-53
2022/03/26 03:05:51;;;;;;;40.83;21.60;;;;;;;5.69;88.89;100586.84;5110292;28;20218;-53
2022/03/26 03:08:18;;;;;;;37.40;20.17;;;;;;;5.74;88.14;100580.88;5109941;28;20449;-54
2022/03/26 03:10:45;;;;;;;38.73;21.87;;;;;;;5.83;87.48;100580.94;5110081;28;20618;-54
2022/03/26 03:13:14;;;;;;;33.77;21.00;;;;;;;5.88;87.02;100585.25;5109832;28;20362;-53
2022/03/26 03:15:41;;;;;;;33.73;21.70;;;;;;;5.96;86.09;100584.50;5109893;28;20321;-53
2022/03/26 03:18:09;;;;;;;39.63;22.07;;;;;;;5.89;86.66;100587.00;5110227;28;20738;-52
2022/03/26 03:20:36;;;;;;;36.20;21.77;;;;;;;5.68;87.53;100569.66;5109989;28;20228;-53
2022/03/26 03:23:02;;;;;;;40.10;21.80;;;;;;;5.71;88.41;100579.97;5109952;28;20293;-52
2022/03/26 03:25:30;;;;;;;45.23;22.50;;;;;;;5.67;88.96;100575.66;5109958;28;20764;-53
2022/03/26 03:27:58;;;;;;;45.10;22.67;;;;;;;5.62;89.13;100580.78;5110029;28;20191;-53
2022/03/26 03:30:27;;;;;;;40.23;23.43;;;;;;;5.53;89.79;100564.41;5110021;28;20300;-52
2022/03/26 03:32:54;;;;;;;46.83;24.33;;;;;;;5.71;89.00;100575.69;5110994;28;20201;-54
2022/03/26 03:35:22;;;;;;;36.37;22.07;;;;;;;5.72;88.10;100573.97;5113654;28;20688;-53
2022/03/26 03:37:50;;;;;;;40.60;23.63;;;;;;;5.80;87.83;100578.34;5113695;28;20217;-53
2022/03/26 03:40:17;;;;;;;40.90;24.10;;;;;;;5.84;87.19;100576.66;5113254;28;20225;-54
2022/03/26 03:42:45;;;;;;;39.80;23.53;;;;;;;5.77;87.45;100583.47;5113478;28;20202;-53
2022/03/26 03:45:12;;;;;;;39.23;24.03;;;;;;;5.73;87.92;100579.16;5113235;28;20197;-53
2022/03/26 03:47:40;;;;;;;36.97;23.37;;;;;;;5.67;87.68;100568.78;5113401;28;20251;-53
2022/03/26 03:50:08;;;;;;;35.67;22.97;;;;;;;5.88;86.76;100586.16;5113453;28;20673;-53
2022/03/26 03:52:35;;;;;;;35.67;22.60;;;;;;;6.01;85.77;100589.69;5113251;28;20578;-54
2022/03/26 03:55:02;;;;;;;42.73;23.83;;;;;;;6.03;84.53;100586.25;5113241;28;20194;-53
2022/03/26 03:57:29;;;;;;;39.43;23.47;;;;;;;6.13;83.68;100594.91;5113173;28;20293;-54
2022/03/26 03:59:56;;;;;;;41.47;23.17;;;;;;;6.14;83.38;100592.34;5113323;28;20201;-53
2022/03/26 04:02:24;;;;;;;40.37;23.33;;;;;;;6.01;84.19;100589.69;5113055;28;20215;-55
2022/03/26 04:04:52;;;;;;;44.97;24.43;;;;;;;5.96;84.96;100592.25;5104339;28;20276;-55
2022/03/26 04:07:19;;;;;;;38.33;23.47;;;;;;;5.86;86.19;100597.28;5091615;28;20710;-55
2022/03/26 04:09:46;;;;;;;44.43;25.93;;;;;;;5.72;87.71;100592.88;5104942;28;20768;-55
2022/03/26 04:12:13;;;;;;;46.40;24.80;;;;;;;5.84;87.08;100605.88;5112550;28;20214;-55
2022/03/26 04:14:43;;;;;;;43.33;24.07;;;;;;;5.76;87.40;100598.91;5112062;28;20225;-54
2022/03/26 04:17:10;;;;;;;40.73;23.93;;;;;;;5.74;87.64;100604.06;5111907;28;20245;-54
2022/03/26 04:19:38;;;;;;;49.20;25.17;;;;;;;5.75;87.40;100592.06;5111999;28;20275;-54
2022/03/26 04:22:07;;;;;;;40.73;23.63;;;;;;;5.78;87.45;100603.22;5111733;28;20249;-57
2022/03/26 04:24:36;;;;;;;50.03;24.50;;;;;;;5.71;87.56;100604.03;5112135;28;20233;-54
2022/03/26 04:27:03;;;;;;;43.70;25.70;;;;;;;5.51;88.66;100581.53;5112381;28;20214;-54
2022/03/26 04:29:30;;;;;;;41.20;23.60;;;;;;;5.61;89.81;100602.22;5111867;28;20222;-54
2022/03/26 04:31:57;;;;;;;40.37;23.83;;;;;;;5.64;89.51;100598.81;5111793;28;20297;-53
2022/03/26 04:34:24;;;;;;;39.23;24.37;;;;;;;5.73;89.10;100607.50;5111686;28;20229;-56
2022/03/26 04:36:51;;;;;;;51.23;23.80;;;;;;;5.89;88.36;100615.34;5111400;28;20214;-56
2022/03/26 04:39:19;;;;;;;43.30;23.80;;;;;;;5.97;87.85;100616.28;5111831;28;20244;-56
2022/03/26 04:41:47;;;;;;;46.83;24.00;;;;;;;5.82;86.71;100610.13;5111698;28;20231;-56
2022/03/26 04:44:14;;;;;;;41.40;24.47;;;;;;;6.01;83.82;100626.63;5110702;28;20758;-56
2022/03/26 04:46:41;;;;;;;44.27;24.57;;;;;;;5.95;82.90;100626.59;5111551;28;20219;-57
2022/03/26 04:49:08;;;;;;;49.53;22.67;;;;;;;5.81;81.62;100623.00;5111064;28;20644;-56
2022/03/26 04:51:35;;;;;;;40.10;22.80;;;;;;;5.88;81.51;100636.78;5108217;28;20538;-56
2022/03/26 04:54:02;;;;;;;44.60;23.33;;;;;;;5.86;80.38;100644.53;5111257;28;20589;-55
2022/03/26 04:56:30;;;;;;;50.87;23.63;;;;;;;5.79;79.93;100650.47;5111918;28;20228;-56
2022/03/26 04:58:57;;;;;;;47.10;24.30;;;;;;;5.62;80.10;100650.31;5111945;28;20202;-54
2022/03/26 05:01:24;;;;;;;44.33;23.83;;;;;;;5.51;80.82;100654.50;5111707;28;20220;-53
2022/03/26 05:03:51;;;;;;;36.37;22.97;;;;;;;5.54;81.01;100649.38;5111521;28;20191;-56
2022/03/26 05:06:18;;;;;;;38.63;23.53;;;;;;;5.48;81.28;100644.16;5111599;28;20285;-57
2022/03/26 05:08:45;;;;;;;42.30;23.00;;;;;;;5.64;80.89;100653.78;5111714;28;20227;-56
2022/03/26 05:11:13;;;;;;;44.77;22.17;;;;;;;5.71;80.35;100652.97;5111856;28;20194;-56
2022/03/26 05:13:41;;;;;;;43.47;24.10;;;;;;;5.76;80.54;100655.56;5111878;28;20197;-57
2022/03/26 05:16:09;;;;;;;40.30;22.90;;;;;;;5.89;79.45;100664.31;5111731;28;20230;-57
2022/03/26 05:18:37;;;;;;;42.10;24.53;;;;;;;5.88;79.60;100665.13;5096868;28;20231;-56
2022/03/26 05:21:04;;;;;;;37.70;23.80;;;;;;;6.03;79.05;100673.03;5090092;28;20302;-56
2022/03/26 05:23:31;;;;;;;45.23;23.10;;;;;;;6.71;75.99;100672.63;5096107;28;20755;-57
2022/03/26 05:25:58;;;;;;;48.70;23.20;;;;;;;7.79;68.98;100673.81;5111506;28;20194;-57
2022/03/26 05:28:25;;;;;;;34.50;21.90;;;;;;;8.95;64.00;100671.13;5111143;28;20190;-54
2022/03/26 05:30:54;;;;;;;33.00;21.30;;;;;;;10.31;58.41;100679.75;5111404;28;20712;-53
2022/03/26 05:33:21;;;;;;;45.00;21.60;;;;;;;11.33;54.38;100681.22;5111277;28;20203;-54
2022/03/26 05:35:48;;;;;;;36.93;22.37;;;;;;;12.04;51.96;100676.72;5103572;28;20226;-54
2022/03/26 05:38:15;;;;;;;38.00;21.23;;;;;;;12.80;49.37;100675.34;5090044;28;20223;-54
2022/03/26 05:40:42;;;;;;;38.23;21.97;;;;;;;13.41;47.61;100674.16;5090139;28;20218;-55
2022/03/26 05:43:10;;;;;;;34.77;22.20;;;;;;;14.31;45.35;100685.91;5089957;28;20314;-53
2022/03/26 05:45:37;;;;;;;37.33;22.77;;;;;;;14.98;43.66;100686.75;5090011;28;20229;-56
2022/03/26 05:48:07;;;;;;;39.53;28.07;;;;;;;15.68;41.69;100692.56;5107582;27;20213;-55
2022/03/26 05:50:35;;;;;;;35.13;25.27;;;;;;;15.97;41.16;100692.47;5123349;27;20256;-55
2022/03/26 05:53:03;;;;;;;30.97;23.93;;;;;;;16.48;39.32;100696.06;5120072;27;20661;-55
2022/03/26 05:55:31;;;;;;;40.00;25.40;;;;;;;16.67;39.13;100691.91;5126525;27;20933;-55
2022/03/26 05:57:58;;;;;;;35.60;24.47;;;;;;;16.70;38.75;100702.31;5109417;28;20315;-55
2022/03/26 06:00:25;;;;;;;33.53;24.37;;;;;;;17.33;37.89;100698.25;5112428;27;20225;-54
2022/03/26 06:02:52;;;;;;;35.33;24.27;;;;;;;17.40;36.78;100697.94;5126333;27;20222;-54
2022/03/26 06:05:22;;;;;;;38.53;26.60;;;;;;;17.58;36.92;100700.78;5130770;27;20190;-55
2022/03/26 06:07:50;;;;;;;36.27;26.07;;;;;;;17.93;36.49;100704.69;5123737;27;20745;-57
2022/03/26 06:10:19;;;;;;;37.13;25.83;;;;;;;18.76;35.02;100709.06;5130545;27;20201;-55
2022/03/26 06:12:47;;;;;;;37.43;25.87;;;;;;;19.31;34.23;100711.88;5120807;27;20199;-55
2022/03/26 06:15:15;;;;;;;34.28;25.38;;;;;;;19.83;33.48;100704.22;5115112;27;20634;-55
2022/03/26 06:17:42;;;;;;;30.75;23.48;;;;;;;19.69;33.20;100712.75;5120045;27;20194;-55
2022/03/26 06:20:10;;;;;;;33.60;22.95;;;;;;;19.49;33.32;100724.25;5119825;27;20201;-55
2022/03/26 06:22:39;;;;;;;34.70;24.38;;;;;;;19.45;33.28;100720.00;5117617;27;20609;-55
2022/03/26 06:25:07;;;;;;;33.10;26.40;;;;;;;19.86;32.99;100714.59;5119207;27;20216;-56
2022/03/26 06:27:35;;;;;;;39.38;26.33;;;;;;;20.64;31.85;100717.75;5119973;27;20235;-55
2022/03/26 06:30:03;;;;;;;42.42;28.02;;;;;;;21.13;30.88;100714.31;5118877;28;20255;-56
2022/03/26 06:32:31;;;;;;;38.60;27.27;;;;;;;21.24;30.61;100714.59;5118544;27;20186;-55
2022/03/26 06:34:58;;;;;;;34.10;24.95;;;;;;;21.36;30.33;100720.09;5112704;28;20281;-53
2022/03/26 06:37:26;;;;;;;33.58;23.67;;;;;;;21.46;30.25;100727.50;5110267;28;20696;-54
2022/03/26 06:39:54;;;;;;;29.75;23.90;;;;;;;21.43;30.51;100722.41;5110102;28;20202;-54
2022/03/26 06:42:22;;;;;;;31.52;23.98;;;;;;;21.96;29.86;100719.44;5109845;28;20630;-55
2022/03/26 06:44:49;;;;;;;31.80;23.42;;;;;;;22.42;28.91;100723.81;5110253;28;20194;-55
2022/03/26 06:47:17;;;;;;;38.60;24.15;;;;;;;22.48;28.89;100729.66;5110162;28;20191;-55
2022/03/26 06:49:44;;;;;;;36.95;24.25;;;;;;;22.80;28.40;100728.63;5110199;28;20203;-56
2022/03/26 06:52:12;;;;;;;39.15;24.60;;;;;;;22.32;29.76;100730.56;5110068;28;20278;-54
2022/03/26 06:54:39;;;;;;;31.20;23.52;;;;;;;21.28;31.20;100732.00;5110306;28;20198;-57
2022/03/26 06:57:08;;;;;;;32.83;22.90;;;;;;;20.94;30.82;100725.84;5110072;28;20247;-56
2022/03/26 06:59:36;;;;;;;32.40;24.33;;;;;;;21.43;30.74;100733.84;5109883;28;20213;-57
2022/03/26 07:02:03;;;;;;;33.47;24.52;;;;;;;21.27;30.35;100730.31;5109843;28;20644;-57
2022/03/26 07:04:31;;;;;;;28.60;22.75;;;;;;;22.04;29.33;100743.66;5109708;28;20195;-56
2022/03/26 07:06:58;;;;;;;34.10;24.58;;;;;;;21.91;29.29;100735.53;5109765;28;20195;-57
2022/03/26 07:09:26;;;;;;;36.22;25.92;;;;;;;22.14;30.62;100733.41;5113516;28;20584;-55
2022/03/26 07:11:53;;;;;;;38.17;25.85;;;;;;;21.59;29.96;100736.47;5113750;28;20195;-54
2022/03/26 07:14:22;;;;;;;30.98;24.67;;;;;;;22.17;29.03;100734.09;5113567;28;20191;-53
2022/03/26 07:16:50;;;;;;;31.60;23.65;;;;;;;22.49;29.09;100736.66;5113486;28;20241;-55
2022/03/26 07:19:17;;;;;;;31.30;22.52;;;;;;;23.30;28.27;100743.25;5113543;28;20225;-55
2022/03/26 07:21:44;;;;;;;29.27;22.35;;;;;;;24.31;26.86;100738.50;5119340;27;20214;-55
2022/03/26 07:24:12;;;;;;;24.45;19.70;;;;;;;24.50;26.52;100741.63;5126471;27;20193;-56
2022/03/26 07:26:39;;;;;;;24.40;19.33;;;;;;;24.57;26.50;100729.66;5118902;27;20190;-57
2022/03/26 07:29:07;;;;;;;21.30;19.05;;;;;;;24.67;26.19;100744.97;5115705;27;20621;-56
2022/03/26 07:31:36;;;;;;;28.52;19.88;;;;;;;25.65;25.14;100740.72;5134084;27;20704;-57
2022/03/26 07:34:04;;;;;;;30.92;22.92;;;;;;;25.96;24.78;100726.00;5134070;27;20581;-57
2022/03/26 07:36:32;;;;;;;29.70;23.23;;;;;;;26.36;24.49;100741.72;5133780;27;20201;-58
2022/03/26 07:38:59;;;;;;;26.50;23.60;;;;;;;26.46;24.52;100731.22;5133985;27;20194;-58
2022/03/26 07:41:27;;;;;;;30.48;23.13;;;;;;;26.58;24.18;100741.81;5133764;27;20282;-54
2022/03/26 07:43:54;;;;;;;35.22;23.85;;;;;;;26.37;24.40;100744.28;5133839;27;20226;-55
2022/03/26 07:46:22;;;;;;;35.78;23.90;;;;;;;26.46;24.11;100745.41;5134211;27;20201;-55
2022/03/26 07:48:51;;;;;;;33.75;23.65;;;;;;;26.93;23.98;100736.47;5133680;27;20247;-55
2022/03/26 07:51:19;;;;;;;27.75;22.85;;;;;;;27.56;23.24;100745.72;5133749;27;20194;-55
2022/03/26 07:53:46;;;;;;;27.98;21.25;;;;;;;27.42;23.40;100741.47;5133904;27;20190;-55
2022/03/26 07:56:14;;;;;;;26.00;20.58;;;;;;;28.71;22.50;100743.28;5119973;27;20226;-55
2022/03/26 07:58:42;;;;;;;25.27;19.83;;;;;;;28.27;22.52;100746.19;5112573;28;20229;-57
2022/03/26 08:01:10;;;;;;;23.98;20.35;;;;;;;27.75;22.94;100734.44;5093275;28;20254;-55
2022/03/26 08:03:38;;;;;;;22.83;20.45;;;;;;;27.85;22.61;100739.88;5111419;28;20230;-55
2022/03/26 08:06:07;;;;;;;22.58;20.00;;;;;;;27.39;23.39;100732.84;5111767;28;20246;-56
2022/03/26 08:08:35;;;;;;;26.98;20.08;;;;;;;27.68;22.97;100728.72;5112316;28;20721;-55
2022/03/26 08:11:03;;;;;;;24.70;19.27;;;;;;;27.39;22.86;100733.72;5112177;28;20218;-55
2022/03/26 08:13:33;;;;;;;20.80;17.95;;;;;;;26.64;24.22;100720.03;5111979;28;20258;-55
2022/03/26 08:16:00;;;;;;;23.50;19.10;;;;;;;25.86;25.27;100725.00;5111557;28;20670;-55
2022/03/26 08:18:28;;;;;;;24.58;18.42;;;;;;;24.29;26.88;100721.84;5111766;28;20717;-55
2022/03/26 08:20:56;;;;;;;23.77;19.60;;;;;;;22.71;27.95;100711.47;5112260;28;20218;-55
2022/03/26 08:23:25;;;;;;;26.67;20.02;;;;;;;20.69;30.53;100711.34;5111618;28;20230;-54
2022/03/26 08:28:37;;;;;;;27.90;19.25;;;;;;;17.73;34.82;100705.47;5111918;28;20660;-55
2022/03/26 08:31:04;;;;;;;26.25;18.35;;;;;;;17.54;35.36;100707.06;5111071;28;20222;-55
2022/03/26 08:33:32;;;;;;;26.23;17.70;;;;;;;16.99;36.23;100709.13;5111663;28;20607;-54
2022/03/26 08:36:00;;;;;;;24.50;19.37;;;;;;;16.61;37.39;100703.41;5112015;28;20222;-56
2022/03/26 08:38:29;;;;;;;31.50;19.10;;;;;;;16.38;37.27;100695.47;5111430;28;20694;-55
2022/03/26 08:40:57;;;;;;;26.53;18.47;;;;;;;16.49;37.14;100688.13;5115837;27;20209;-55
2022/03/26 08:43:24;;;;;;;26.33;19.53;;;;;;;16.34;37.95;100683.41;5132088;27;20732;-56
2022/03/26 08:45:52;;;;;;;29.47;19.73;;;;;;;16.32;38.21;100687.84;5131627;27;20300;-57
2022/03/26 08:48:19;;;;;;;30.93;18.63;;;;;;;15.98;38.81;100686.34;5124900;27;20222;-56
2022/03/26 08:50:47;;;;;;;24.87;18.57;;;;;;;16.01;38.89;100682.78;5111762;28;20219;-54
2022/03/26 08:53:15;;;;;;;20.80;18.30;;;;;;;15.60;39.56;100678.81;5111464;28;20254;-55
2022/03/26 08:55:44;;;;;;;31.77;19.10;;;;;;;15.56;39.43;100680.69;5111706;28;20551;-55
2022/03/26 08:58:12;;;;;;;31.87;18.93;;;;;;;15.45;39.88;100676.66;5109037;28;20219;-55
2022/03/26 09:00:39;;;;;;;24.67;18.23;;;;;;;15.14;40.69;100677.56;5090445;28;20227;-54
2022/03/26 09:03:06;;;;;;;23.90;18.40;;;;;;;14.68;41.41;100658.81;5090950;28;20223;-55
2022/03/26 09:05:34;;;;;;;24.90;18.87;;;;;;;14.83;41.29;100671.47;5090563;28;20273;-57
2022/03/26 09:08:01;;;;;;;24.00;17.97;;;;;;;14.86;41.08;100663.56;5091109;28;20219;-55
2022/03/26 09:10:28;;;;;;;26.73;18.63;;;;;;;14.84;41.06;100658.38;5090856;28;20215;-56
2022/03/26 09:12:56;;;;;;;25.37;18.70;;;;;;;14.89;40.57;100656.50;5100021;28;20225;-56
2022/03/26 09:15:23;;;;;;;23.47;18.20;;;;;;;15.02;40.46;100656.13;5110990;28;20618;-57
2022/03/26 09:17:50;;;;;;;27.97;18.13;;;;;;;15.12;40.02;100652.38;5111762;28;20278;-57
2022/03/26 09:20:17;;;;;;;25.60;18.10;;;;;;;15.07;40.36;100652.50;5111447;28;20190;-57
2022/03/26 09:22:44;;;;;;;26.53;17.50;;;;;;;14.96;39.64;100645.84;5111784;28;20747;-57
2022/03/26 09:25:12;;;;;;;23.83;16.27;;;;;;;15.19;39.33;100631.22;5111619;28;20202;-57
2022/03/26 09:27:39;;;;;;;25.13;17.97;;;;;;;15.22;39.37;100632.88;5111519;28;20593;-58
2022/03/26 09:30:09;;;;;;;21.73;15.97;;;;;;;15.27;39.16;100637.06;5111299;28;20199;-56
2022/03/26 09:32:36;;;;;;;22.00;16.70;;;;;;;15.20;38.02;100626.84;5111135;28;20746;-58
2022/03/26 09:35:03;;;;;;;26.80;17.80;;;;;;;15.22;38.15;100625.91;5111335;28;20194;-59
2022/03/26 09:37:30;;;;;;;24.00;17.27;;;;;;;15.37;37.91;100621.06;5111103;28;20197;-58
2022/03/26 09:39:57;;;;;;;22.63;16.97;;;;;;;14.97;37.74;100614.44;5111110;28;20190;-58
2022/03/26 09:42:24;;;;;;;25.73;17.40;;;;;;;14.93;38.37;100614.56;5111186;28;20707;-59
2022/03/26 09:44:52;;;;;;;27.67;16.97;;;;;;;15.14;37.83;100612.16;5111177;28;20190;-58
2022/03/26 09:47:22;;;;;;;30.37;17.23;;;;;;;15.32;36.87;100608.16;5110910;28;20221;-58
2022/03/26 09:49:49;;;;;;;21.50;16.23;;;;;;;15.22;36.83;100604.97;5111321;28;20587;-57
2022/03/26 09:52:16;;;;;;;29.10;16.33;;;;;;;15.11;36.40;100593.97;5110966;28;20200;-58
2022/03/26 09:54:43;;;;;;;24.50;15.87;;;;;;;14.97;36.34;100614.44;5110758;28;20240;-59
2022/03/26 09:57:11;;;;;;;21.00;14.73;;;;;;;14.99;35.79;100596.09;5110994;28;20228;-58
2022/03/26 09:59:38;;;;;;;17.83;15.30;;;;;;;15.30;35.32;100588.16;5110857;28;20591;-58
2022/03/26 10:02:04;;;;;;;19.60;15.30;;;;;;;15.35;35.16;100589.72;5110673;28;20661;-56
2022/03/26 10:04:39;;;;;;;28.53;16.10;;;;;;;15.31;34.59;100587.28;5110593;28;20232;-57
2022/03/26 10:07:06;;;;;;;29.63;15.60;;;;;;;15.65;34.42;100581.84;5110629;28;20201;-56
2022/03/26 10:09:35;;;;;;;22.63;15.70;;;;;;;15.83;34.25;100576.84;5122099;27;20194;-57
2022/03/26 10:12:04;;;;;;;25.63;17.00;;;;;;;16.03;34.05;100577.97;5131220;27;20277;-57
2022/03/26 10:14:42;;;;;;;25.67;15.43;;;;;;;16.34;33.27;100562.88;5125199;27;20277;-56
2022/03/26 10:17:15;;;;;;;20.07;16.00;;;;;;;16.11;33.67;100576.78;5110815;28;20241;-57
2022/03/26 10:19:45;;;;;;;25.40;16.50;;;;;;;16.25;33.34;100565.84;5110348;28;20758;-56
2022/03/26 10:22:30;;;;;;;21.03;16.63;;;;;;;16.29;33.05;100562.19;5110317;28;20242;-56
2022/03/26 10:24:58;;;;;;;22.30;15.17;;;;;;;16.23;32.93;100559.78;5110463;28;20202;-57
2022/03/26 10:27:25;;;;;;;17.43;14.70;;;;;;;16.42;32.82;100562.59;5110620;28;20191;-55
2022/03/26 10:29:54;;;;;;;22.80;15.57;;;;;;;16.58;32.61;100538.41;5110510;28;20195;-54
2022/03/26 10:32:41;;;;;;;22.60;14.83;;;;;;;16.68;31.61;100546.81;5110335;28;20293;-53
2022/03/26 10:35:16;;;;;;;19.57;13.83;;;;;;;16.77;30.51;100548.22;5110305;28;20201;-54
2022/03/26 10:37:44;;;;;;;17.53;13.93;;;;;;;16.80;30.66;100541.13;5110388;28;20204;-57
2022/03/26 10:40:23;;;;;;;19.90;14.13;;;;;;;16.93;31.01;100544.13;5110408;28;20694;-57
2022/03/26 10:43:08;;;;;;;15.47;13.87;;;;;;;16.92;30.42;100543.28;5111278;28;20222;-56
2022/03/26 10:45:37;;;;;;;19.27;14.37;;;;;;;17.00;30.26;100532.47;5114297;28;20277;-57
2022/03/26 10:48:08;;;;;;;15.53;12.83;;;;;;;17.10;29.45;100527.72;5114581;28;20198;-57
2022/03/26 10:50:37;;;;;;;21.73;13.97;;;;;;;17.17;29.22;100513.44;5114274;28;20194;-57
2022/03/26 10:53:09;;;;;;;20.53;13.90;;;;;;;17.16;29.57;100523.06;5114506;28;20584;-57
2022/03/26 10:55:39;;;;;;;16.73;13.57;;;;;;;17.00;29.82;100511.50;5114134;28;20195;-56
2022/03/26 10:58:06;;;;;;;17.00;13.23;;;;;;;17.09;29.24;100515.50;5114136;28;20201;-57
2022/03/26 11:00:34;;;;;;;16.03;12.30;;;;;;;17.03;28.42;100508.75;5114473;28;20198;-57
2022/03/26 11:03:01;;;;;;;19.27;12.20;;;;;;;17.08;28.25;100503.31;5114443;28;20702;-57
2022/03/26 11:05:30;;;;;;;14.50;13.00;;;;;;;17.07;29.06;100497.19;5106916;28;20215;-57
2022/03/26 11:07:59;;;;;;;15.90;12.43;;;;;;;17.10;27.97;100501.47;5093337;28;20219;-57
2022/03/26 11:10:26;;;;;;;14.03;12.43;;;;;;;17.12;28.28;100490.03;5094521;28;20770;-57
2022/03/26 11:12:54;;;;;;;17.73;13.50;;;;;;;16.93;28.09;100486.44;5113717;28;20225;-58
2022/03/26 11:15:27;;;;;;;18.20;12.70;;;;;;;17.05;28.31;100485.91;5113016;28;20242;-56
2022/03/26 11:18:15;;;;;;;14.43;12.13;;;;;;;17.05;27.58;100476.28;5114126;28;20229;-57